sensor_id;sensor_type;location;lat;lon;timestamp;temperature;humidity
56771;DHT22;42641;59.794;17.616;2023-07-22T00:00:02;14.30;99.90
56771;DHT22;42641;59.794;17.616;2023-07-22T00:02:32;14.30;99.90
56771;DHT22;42641;59.794;17.616;2023-07-22T00:04:58;14.30;99.90
56771;DHT22;42641;59.794;17.616;2023-07-22T00:07:25;14.30;99.90
56771;DHT22;42641;59.794;17.616;2023-07-22T00:09:51;14.30;99.90
56771;DHT22;42641;59.794;17.616;2023-07-22T00:12:17;14.20;99.90
56771;DHT22;42641;59.794;17.616;2023-07-22T00:14:44;14.20;99.90
56771;DHT22;42641;59.794;17.616;2023-07-22T00:17:10;14.20;99.90
56771;DHT22;42641;59.794;17.616;2023-07-22T00:19:37;14.20;99.90
56771;DHT22;42641;59.794;17.616;2023-07-22T00:22:03;14.20;99.90
56771;DHT22;42641;59.794;17.616;2023-07-22T00:24:30;14.20;99.90
56771;DHT22;42641;59.794;17.616;2023-07-22T00:26:56;14.10;99.90
56771;DHT22;42641;59.794;17.616;2023-07-22T00:29:23;14.10;99.90
56771;DHT22;42641;59.794;17.616;2023-07-22T00:31:49;14.10;99.90
56771;DHT22;42641;59.794;17.616;2023-07-22T00:34:16;14.10;99.90
56771;DHT22;42641;59.794;17.616;2023-07-22T00:36:42;14.00;99.90
56771;DHT22;42641;59.794;17.616;2023-07-22T00:39:10;14.00;99.90
56771;DHT22;42641;59.794;17.616;2023-07-22T00:41:37;14.00;99.90
56771;DHT22;42641;59.794;17.616;2023-07-22T00:44:05;14.00;99.90
56771;DHT22;42641;59.794;17.616;2023-07-22T00:46:31;14.00;99.90
56771;DHT22;42641;59.794;17.616;2023-07-22T00:48:58;13.90;99.90
56771;DHT22;42641;59.794;17.616;2023-07-22T00:51:24;13.90;99.90
56771;DHT22;42641;59.794;17.616;2023-07-22T00:53:51;13.90;99.90
56771;DHT22;42641;59.794;17.616;2023-07-22T00:56:17;13.80;99.90
56771;DHT22;42641;59.794;17.616;2023-07-22T00:58:44;13.70;99.90
56771;DHT22;42641;59.794;17.616;2023-07-22T01:01:11;13.70;99.90
56771;DHT22;42641;59.794;17.616;2023-07-22T01:03:38;13.80;99.90
56771;DHT22;42641;59.794;17.616;2023-07-22T01:06:04;13.80;99.90
56771;DHT22;42641;59.794;17.616;2023-07-22T01:08:31;13.80;99.90
56771;DHT22;42641;59.794;17.616;2023-07-22T01:10:57;13.70;99.90
56771;DHT22;42641;59.794;17.616;2023-07-22T01:13:25;13.70;99.90
56771;DHT22;42641;59.794;17.616;2023-07-22T01:15:52;13.60;99.90
56771;DHT22;42641;59.794;17.616;2023-07-22T01:18:18;13.60;99.90
56771;DHT22;42641;59.794;17.616;2023-07-22T01:20:46;13.60;99.90
56771;DHT22;42641;59.794;17.616;2023-07-22T01:23:12;13.60;99.90
56771;DHT22;42641;59.794;17.616;2023-07-22T01:25:38;13.60;99.90
56771;DHT22;42641;59.794;17.616;2023-07-22T01:28:09;13.60;99.90
56771;DHT22;42641;59.794;17.616;2023-07-22T01:30:36;13.50;99.90
56771;DHT22;42641;59.794;17.616;2023-07-22T01:33:03;13.50;99.90
56771;DHT22;42641;59.794;17.616;2023-07-22T01:35:29;13.50;99.90
56771;DHT22;42641;59.794;17.616;2023-07-22T01:37:56;13.50;99.90
56771;DHT22;42641;59.794;17.616;2023-07-22T01:40:23;13.50;99.90
56771;DHT22;42641;59.794;17.616;2023-07-22T01:42:50;13.50;99.90
56771;DHT22;42641;59.794;17.616;2023-07-22T01:45:17;13.50;99.90
56771;DHT22;42641;59.794;17.616;2023-07-22T01:47:43;13.40;99.90
56771;DHT22;42641;59.794;17.616;2023-07-22T01:50:10;13.40;99.90
56771;DHT22;42641;59.794;17.616;2023-07-22T01:52:37;13.30;99.90
56771;DHT22;42641;59.794;17.616;2023-07-22T01:55:03;13.30;99.90
56771;DHT22;42641;59.794;17.616;2023-07-22T01:57:32;13.30;99.90
56771;DHT22;42641;59.794;17.616;2023-07-22T01:59:59;13.20;99.90
56771;DHT22;42641;59.794;17.616;2023-07-22T02:02:26;13.30;99.90
56771;DHT22;42641;59.794;17.616;2023-07-22T02:04:53;13.20;99.90
56771;DHT22;42641;59.794;17.616;2023-07-22T02:07:19;13.20;99.90
56771;DHT22;42641;59.794;17.616;2023-07-22T02:09:46;13.30;99.90
56771;DHT22;42641;59.794;17.616;2023-07-22T02:12:12;13.20;99.90
56771;DHT22;42641;59.794;17.616;2023-07-22T02:14:39;13.20;99.90
56771;DHT22;42641;59.794;17.616;2023-07-22T02:17:06;13.20;99.90
56771;DHT22;42641;59.794;17.616;2023-07-22T02:19:35;13.20;99.90
56771;DHT22;42641;59.794;17.616;2023-07-22T02:22:04;13.20;99.90
56771;DHT22;42641;59.794;17.616;2023-07-22T02:24:31;13.20;99.90
56771;DHT22;42641;59.794;17.616;2023-07-22T02:26:58;13.20;99.90
56771;DHT22;42641;59.794;17.616;2023-07-22T02:29:24;13.10;99.90
56771;DHT22;42641;59.794;17.616;2023-07-22T02:31:51;13.10;99.90
56771;DHT22;42641;59.794;17.616;2023-07-22T02:34:17;13.10;99.90
56771;DHT22;42641;59.794;17.616;2023-07-22T02:36:43;13.10;99.90
56771;DHT22;42641;59.794;17.616;2023-07-22T02:39:10;13.10;99.90
56771;DHT22;42641;59.794;17.616;2023-07-22T02:41:37;13.10;99.90
56771;DHT22;42641;59.794;17.616;2023-07-22T02:44:03;13.00;99.90
56771;DHT22;42641;59.794;17.616;2023-07-22T02:46:29;13.00;99.90
56771;DHT22;42641;59.794;17.616;2023-07-22T02:48:58;13.00;99.90
56771;DHT22;42641;59.794;17.616;2023-07-22T02:51:25;13.00;99.90
56771;DHT22;42641;59.794;17.616;2023-07-22T02:53:51;13.00;99.90
56771;DHT22;42641;59.794;17.616;2023-07-22T02:56:18;13.00;99.90
56771;DHT22;42641;59.794;17.616;2023-07-22T02:58:44;13.00;99.90
56771;DHT22;42641;59.794;17.616;2023-07-22T03:01:11;13.10;99.90
56771;DHT22;42641;59.794;17.616;2023-07-22T03:03:37;13.10;99.90
56771;DHT22;42641;59.794;17.616;2023-07-22T03:06:06;13.20;99.90
56771;DHT22;42641;59.794;17.616;2023-07-22T03:08:33;13.20;99.90
56771;DHT22;42641;59.794;17.616;2023-07-22T03:11:00;13.20;99.90
56771;DHT22;42641;59.794;17.616;2023-07-22T03:13:28;13.10;99.90
56771;DHT22;42641;59.794;17.616;2023-07-22T03:15:56;13.10;99.90
56771;DHT22;42641;59.794;17.616;2023-07-22T03:18:22;13.20;99.90
56771;DHT22;42641;59.794;17.616;2023-07-22T03:20:49;13.20;99.90
56771;DHT22;42641;59.794;17.616;2023-07-22T03:23:15;13.20;99.90
56771;DHT22;42641;59.794;17.616;2023-07-22T03:25:42;13.20;99.90
56771;DHT22;42641;59.794;17.616;2023-07-22T03:28:08;13.30;99.90
56771;DHT22;42641;59.794;17.616;2023-07-22T03:30:35;13.30;99.90
56771;DHT22;42641;59.794;17.616;2023-07-22T03:33:01;13.30;99.90
56771;DHT22;42641;59.794;17.616;2023-07-22T03:35:28;13.40;99.90
56771;DHT22;42641;59.794;17.616;2023-07-22T03:37:54;13.40;99.90
56771;DHT22;42641;59.794;17.616;2023-07-22T03:40:21;13.40;99.90
56771;DHT22;42641;59.794;17.616;2023-07-22T03:42:53;13.40;99.90
56771;DHT22;42641;59.794;17.616;2023-07-22T03:45:20;13.50;99.90
56771;DHT22;42641;59.794;17.616;2023-07-22T03:47:51;13.50;99.90
56771;DHT22;42641;59.794;17.616;2023-07-22T03:50:18;13.60;99.90
56771;DHT22;42641;59.794;17.616;2023-07-22T03:52:45;13.70;99.90
56771;DHT22;42641;59.794;17.616;2023-07-22T03:55:11;13.70;99.90
56771;DHT22;42641;59.794;17.616;2023-07-22T03:57:38;13.80;99.90
56771;DHT22;42641;59.794;17.616;2023-07-22T04:00:06;13.80;99.90
56771;DHT22;42641;59.794;17.616;2023-07-22T04:02:41;13.90;99.90
56771;DHT22;42641;59.794;17.616;2023-07-22T04:05:08;13.90;99.90
56771;DHT22;42641;59.794;17.616;2023-07-22T04:07:35;14.00;99.90
56771;DHT22;42641;59.794;17.616;2023-07-22T04:10:02;14.00;99.90
56771;DHT22;42641;59.794;17.616;2023-07-22T04:12:28;14.00;99.90
56771;DHT22;42641;59.794;17.616;2023-07-22T04:14:55;14.00;99.90
56771;DHT22;42641;59.794;17.616;2023-07-22T04:17:22;14.10;99.90
56771;DHT22;42641;59.794;17.616;2023-07-22T04:19:51;14.20;99.90
56771;DHT22;42641;59.794;17.616;2023-07-22T04:22:19;14.30;99.90
56771;DHT22;42641;59.794;17.616;2023-07-22T04:24:46;14.30;99.90
56771;DHT22;42641;59.794;17.616;2023-07-22T04:27:14;14.50;99.90
56771;DHT22;42641;59.794;17.616;2023-07-22T04:29:42;14.50;99.90
56771;DHT22;42641;59.794;17.616;2023-07-22T04:32:08;14.50;99.90
56771;DHT22;42641;59.794;17.616;2023-07-22T04:34:35;14.60;99.90
56771;DHT22;42641;59.794;17.616;2023-07-22T04:37:02;14.70;99.90
56771;DHT22;42641;59.794;17.616;2023-07-22T04:39:29;14.70;99.90
56771;DHT22;42641;59.794;17.616;2023-07-22T04:41:55;14.70;99.90
56771;DHT22;42641;59.794;17.616;2023-07-22T04:44:22;14.80;99.90
56771;DHT22;42641;59.794;17.616;2023-07-22T04:46:48;14.80;99.90
56771;DHT22;42641;59.794;17.616;2023-07-22T04:49:14;14.90;99.90
56771;DHT22;42641;59.794;17.616;2023-07-22T04:51:46;14.90;99.90
56771;DHT22;42641;59.794;17.616;2023-07-22T04:54:13;15.00;99.90
56771;DHT22;42641;59.794;17.616;2023-07-22T04:56:42;15.00;99.90
56771;DHT22;42641;59.794;17.616;2023-07-22T04:59:08;15.10;99.90
56771;DHT22;42641;59.794;17.616;2023-07-22T05:01:35;15.20;99.90
56771;DHT22;42641;59.794;17.616;2023-07-22T05:04:01;15.30;99.90
56771;DHT22;42641;59.794;17.616;2023-07-22T05:06:28;15.40;99.90
56771;DHT22;42641;59.794;17.616;2023-07-22T05:08:55;15.40;99.90
56771;DHT22;42641;59.794;17.616;2023-07-22T05:11:21;15.40;99.90
56771;DHT22;42641;59.794;17.616;2023-07-22T05:13:49;15.50;99.90
56771;DHT22;42641;59.794;17.616;2023-07-22T05:16:16;15.60;99.90
56771;DHT22;42641;59.794;17.616;2023-07-22T05:18:42;15.80;99.90
56771;DHT22;42641;59.794;17.616;2023-07-22T05:21:08;15.80;99.90
56771;DHT22;42641;59.794;17.616;2023-07-22T05:23:35;15.80;99.90
56771;DHT22;42641;59.794;17.616;2023-07-22T05:26:01;15.70;99.90
56771;DHT22;42641;59.794;17.616;2023-07-22T05:28:28;15.70;99.90
56771;DHT22;42641;59.794;17.616;2023-07-22T05:30:55;15.80;99.90
56771;DHT22;42641;59.794;17.616;2023-07-22T05:33:22;15.80;99.90
56771;DHT22;42641;59.794;17.616;2023-07-22T05:35:48;15.80;99.90
56771;DHT22;42641;59.794;17.616;2023-07-22T05:38:15;15.80;99.90
56771;DHT22;42641;59.794;17.616;2023-07-22T05:40:41;15.80;99.90
56771;DHT22;42641;59.794;17.616;2023-07-22T05:43:07;15.90;99.90
56771;DHT22;42641;59.794;17.616;2023-07-22T05:45:34;16.00;99.90
56771;DHT22;42641;59.794;17.616;2023-07-22T05:48:00;16.10;99.90
56771;DHT22;42641;59.794;17.616;2023-07-22T05:50:27;16.20;99.90
56771;DHT22;42641;59.794;17.616;2023-07-22T05:52:53;16.20;99.90
56771;DHT22;42641;59.794;17.616;2023-07-22T05:55:20;16.30;99.90
56771;DHT22;42641;59.794;17.616;2023-07-22T05:57:46;16.40;99.90
56771;DHT22;42641;59.794;17.616;2023-07-22T06:00:13;16.40;99.90
56771;DHT22;42641;59.794;17.616;2023-07-22T06:02:40;16.40;99.90
56771;DHT22;42641;59.794;17.616;2023-07-22T06:05:07;16.40;99.90
56771;DHT22;42641;59.794;17.616;2023-07-22T06:07:34;16.40;99.90
56771;DHT22;42641;59.794;17.616;2023-07-22T06:10:00;16.60;99.90
56771;DHT22;42641;59.794;17.616;2023-07-22T06:12:26;16.80;99.90
56771;DHT22;42641;59.794;17.616;2023-07-22T06:14:53;16.90;99.90
56771;DHT22;42641;59.794;17.616;2023-07-22T06:17:20;17.00;99.90
56771;DHT22;42641;59.794;17.616;2023-07-22T06:19:47;17.20;99.90
56771;DHT22;42641;59.794;17.616;2023-07-22T06:22:13;17.20;99.90
56771;DHT22;42641;59.794;17.616;2023-07-22T06:24:40;17.20;99.90
56771;DHT22;42641;59.794;17.616;2023-07-22T06:27:06;17.20;99.90
56771;DHT22;42641;59.794;17.616;2023-07-22T06:29:32;17.30;99.90
56771;DHT22;42641;59.794;17.616;2023-07-22T06:31:59;17.30;99.90
56771;DHT22;42641;59.794;17.616;2023-07-22T06:34:25;17.40;99.90
56771;DHT22;42641;59.794;17.616;2023-07-22T06:36:52;17.50;99.90
56771;DHT22;42641;59.794;17.616;2023-07-22T06:39:18;17.60;99.90
56771;DHT22;42641;59.794;17.616;2023-07-22T06:41:44;17.50;99.90
56771;DHT22;42641;59.794;17.616;2023-07-22T06:44:13;17.60;99.90
56771;DHT22;42641;59.794;17.616;2023-07-22T06:46:39;17.60;99.90
56771;DHT22;42641;59.794;17.616;2023-07-22T06:49:06;17.70;99.90
56771;DHT22;42641;59.794;17.616;2023-07-22T06:51:32;17.70;99.90
56771;DHT22;42641;59.794;17.616;2023-07-22T06:53:59;17.80;99.90
56771;DHT22;42641;59.794;17.616;2023-07-22T06:56:25;17.90;99.90
56771;DHT22;42641;59.794;17.616;2023-07-22T06:58:52;17.90;99.90
56771;DHT22;42641;59.794;17.616;2023-07-22T07:01:18;18.00;99.90
56771;DHT22;42641;59.794;17.616;2023-07-22T07:03:45;18.10;99.90
56771;DHT22;42641;59.794;17.616;2023-07-22T07:06:12;18.20;99.90
56771;DHT22;42641;59.794;17.616;2023-07-22T07:08:38;18.30;99.90
56771;DHT22;42641;59.794;17.616;2023-07-22T07:11:05;18.30;99.90
56771;DHT22;42641;59.794;17.616;2023-07-22T07:13:33;18.30;99.90
56771;DHT22;42641;59.794;17.616;2023-07-22T07:16:24;18.50;99.90
56771;DHT22;42641;59.794;17.616;2023-07-22T07:18:51;18.80;99.90
56771;DHT22;42641;59.794;17.616;2023-07-22T07:21:18;18.90;99.90
56771;DHT22;42641;59.794;17.616;2023-07-22T07:23:45;18.90;99.90
56771;DHT22;42641;59.794;17.616;2023-07-22T07:26:12;18.90;99.90
56771;DHT22;42641;59.794;17.616;2023-07-22T07:28:38;18.90;99.90
56771;DHT22;42641;59.794;17.616;2023-07-22T07:31:04;18.90;99.90
56771;DHT22;42641;59.794;17.616;2023-07-22T07:33:31;19.00;99.90
56771;DHT22;42641;59.794;17.616;2023-07-22T07:35:58;19.10;99.90
56771;DHT22;42641;59.794;17.616;2023-07-22T07:38:24;19.10;99.90
56771;DHT22;42641;59.794;17.616;2023-07-22T07:40:55;19.10;99.90
56771;DHT22;42641;59.794;17.616;2023-07-22T07:43:22;19.10;99.90
56771;DHT22;42641;59.794;17.616;2023-07-22T07:45:48;19.30;99.90
56771;DHT22;42641;59.794;17.616;2023-07-22T07:48:15;19.30;99.90
56771;DHT22;42641;59.794;17.616;2023-07-22T07:50:42;19.40;99.90
56771;DHT22;42641;59.794;17.616;2023-07-22T07:53:08;19.60;99.90
56771;DHT22;42641;59.794;17.616;2023-07-22T07:55:34;19.60;99.90
56771;DHT22;42641;59.794;17.616;2023-07-22T07:58:01;19.70;99.90
56771;DHT22;42641;59.794;17.616;2023-07-22T08:00:27;19.90;99.90
56771;DHT22;42641;59.794;17.616;2023-07-22T08:02:54;20.00;99.90
56771;DHT22;42641;59.794;17.616;2023-07-22T08:05:21;20.10;99.90
56771;DHT22;42641;59.794;17.616;2023-07-22T08:07:47;20.10;99.90
56771;DHT22;42641;59.794;17.616;2023-07-22T08:10:14;20.30;99.90
56771;DHT22;42641;59.794;17.616;2023-07-22T08:12:41;20.40;99.90
56771;DHT22;42641;59.794;17.616;2023-07-22T08:15:07;20.40;99.90
56771;DHT22;42641;59.794;17.616;2023-07-22T08:17:34;20.50;99.90
56771;DHT22;42641;59.794;17.616;2023-07-22T08:20:01;20.30;99.90
56771;DHT22;42641;59.794;17.616;2023-07-22T08:22:27;20.30;99.90
56771;DHT22;42641;59.794;17.616;2023-07-22T08:24:54;20.30;99.90
56771;DHT22;42641;59.794;17.616;2023-07-22T08:27:20;20.50;99.90
56771;DHT22;42641;59.794;17.616;2023-07-22T08:29:47;20.30;99.90
56771;DHT22;42641;59.794;17.616;2023-07-22T08:32:13;20.10;99.90
56771;DHT22;42641;59.794;17.616;2023-07-22T08:34:39;19.90;99.90
56771;DHT22;42641;59.794;17.616;2023-07-22T08:37:06;19.80;99.90
56771;DHT22;42641;59.794;17.616;2023-07-22T08:39:32;20.00;99.90
56771;DHT22;42641;59.794;17.616;2023-07-22T08:42:01;20.10;99.90
56771;DHT22;42641;59.794;17.616;2023-07-22T08:44:32;20.40;99.90
56771;DHT22;42641;59.794;17.616;2023-07-22T08:47:03;20.60;99.90
56771;DHT22;42641;59.794;17.616;2023-07-22T08:49:30;20.80;99.90
56771;DHT22;42641;59.794;17.616;2023-07-22T08:51:56;21.10;99.90
56771;DHT22;42641;59.794;17.616;2023-07-22T08:54:24;21.40;99.90
56771;DHT22;42641;59.794;17.616;2023-07-22T08:56:50;21.40;99.90
56771;DHT22;42641;59.794;17.616;2023-07-22T08:59:18;21.30;99.90
56771;DHT22;42641;59.794;17.616;2023-07-22T09:01:46;21.40;99.90
56771;DHT22;42641;59.794;17.616;2023-07-22T09:04:14;21.70;99.90
56771;DHT22;42641;59.794;17.616;2023-07-22T09:06:41;22.10;99.90
56771;DHT22;42641;59.794;17.616;2023-07-22T09:09:09;22.40;99.90
56771;DHT22;42641;59.794;17.616;2023-07-22T09:11:36;22.30;99.90
56771;DHT22;42641;59.794;17.616;2023-07-22T09:14:03;22.00;99.90
56771;DHT22;42641;59.794;17.616;2023-07-22T09:16:33;21.90;99.90
56771;DHT22;42641;59.794;17.616;2023-07-22T09:18:59;22.00;99.90
56771;DHT22;42641;59.794;17.616;2023-07-22T09:21:26;22.10;99.90
56771;DHT22;42641;59.794;17.616;2023-07-22T09:23:54;22.40;99.90
56771;DHT22;42641;59.794;17.616;2023-07-22T09:26:20;22.20;99.90
56771;DHT22;42641;59.794;17.616;2023-07-22T09:28:51;21.80;99.90
56771;DHT22;42641;59.794;17.616;2023-07-22T09:31:20;21.50;99.90
56771;DHT22;42641;59.794;17.616;2023-07-22T09:33:46;21.60;99.90
56771;DHT22;42641;59.794;17.616;2023-07-22T09:36:13;21.90;99.90
56771;DHT22;42641;59.794;17.616;2023-07-22T09:38:39;22.30;99.90
56771;DHT22;42641;59.794;17.616;2023-07-22T09:41:06;22.70;99.90
56771;DHT22;42641;59.794;17.616;2023-07-22T09:43:37;22.80;99.90
56771;DHT22;42641;59.794;17.616;2023-07-22T09:46:09;23.00;99.90
56771;DHT22;42641;59.794;17.616;2023-07-22T09:48:43;22.90;99.90
56771;DHT22;42641;59.794;17.616;2023-07-22T09:51:15;22.80;99.90
56771;DHT22;42641;59.794;17.616;2023-07-22T09:53:47;22.80;99.90
56771;DHT22;42641;59.794;17.616;2023-07-22T09:56:13;22.70;99.90
56771;DHT22;42641;59.794;17.616;2023-07-22T09:58:40;22.60;99.90
56771;DHT22;42641;59.794;17.616;2023-07-22T10:01:09;22.60;99.90
56771;DHT22;42641;59.794;17.616;2023-07-22T10:03:38;22.80;99.90
56771;DHT22;42641;59.794;17.616;2023-07-22T10:06:06;22.60;99.90
56771;DHT22;42641;59.794;17.616;2023-07-22T10:08:34;22.40;99.90
56771;DHT22;42641;59.794;17.616;2023-07-22T10:11:05;22.10;99.90
56771;DHT22;42641;59.794;17.616;2023-07-22T10:13:34;21.90;99.90
56771;DHT22;42641;59.794;17.616;2023-07-22T10:16:01;22.20;99.90
56771;DHT22;42641;59.794;17.616;2023-07-22T10:18:29;22.10;99.90
56771;DHT22;42641;59.794;17.616;2023-07-22T10:20:57;22.00;99.90
56771;DHT22;42641;59.794;17.616;2023-07-22T10:23:26;21.90;99.90
56771;DHT22;42641;59.794;17.616;2023-07-22T10:25:53;22.10;99.90
56771;DHT22;42641;59.794;17.616;2023-07-22T10:28:21;22.30;99.90
56771;DHT22;42641;59.794;17.616;2023-07-22T10:30:51;22.60;98.90
56771;DHT22;42641;59.794;17.616;2023-07-22T10:33:17;23.20;99.90
56771;DHT22;42641;59.794;17.616;2023-07-22T10:36:08;22.90;99.90
56771;DHT22;42641;59.794;17.616;2023-07-22T10:38:35;22.50;99.70
56771;DHT22;42641;59.794;17.616;2023-07-22T10:41:12;22.70;98.80
56771;DHT22;42641;59.794;17.616;2023-07-22T10:43:39;22.80;98.70
56771;DHT22;42641;59.794;17.616;2023-07-22T10:46:12;23.30;99.80
56771;DHT22;42641;59.794;17.616;2023-07-22T10:48:40;23.90;98.60
56771;DHT22;42641;59.794;17.616;2023-07-22T10:51:10;24.10;96.40
56771;DHT22;42641;59.794;17.616;2023-07-22T10:53:49;23.60;97.60
56771;DHT22;42641;59.794;17.616;2023-07-22T10:56:21;23.20;98.20
56771;DHT22;42641;59.794;17.616;2023-07-22T11:04:22;24.10;98.00
56771;DHT22;42641;59.794;17.616;2023-07-22T11:06:59;24.40;98.20
56771;DHT22;42641;59.794;17.616;2023-07-22T11:14:27;25.10;95.70
56771;DHT22;42641;59.794;17.616;2023-07-22T11:16:56;25.50;93.60
56771;DHT22;42641;59.794;17.616;2023-07-22T11:19:24;25.40;93.80
56771;DHT22;42641;59.794;17.616;2023-07-22T11:21:53;25.30;92.80
56771;DHT22;42641;59.794;17.616;2023-07-22T11:24:20;26.10;93.00
56771;DHT22;42641;59.794;17.616;2023-07-22T11:26:47;26.90;92.40
56771;DHT22;42641;59.794;17.616;2023-07-22T11:29:15;27.80;91.20
56771;DHT22;42641;59.794;17.616;2023-07-22T11:31:43;28.60;87.80
56771;DHT22;42641;59.794;17.616;2023-07-22T11:34:13;28.80;84.00
56771;DHT22;42641;59.794;17.616;2023-07-22T11:36:40;28.80;86.80
56771;DHT22;42641;59.794;17.616;2023-07-22T11:39:08;29.10;83.30
56771;DHT22;42641;59.794;17.616;2023-07-22T11:41:36;28.90;79.10
56771;DHT22;42641;59.794;17.616;2023-07-22T11:44:03;29.00;85.10
56771;DHT22;42641;59.794;17.616;2023-07-22T11:46:36;29.10;82.30
56771;DHT22;42641;59.794;17.616;2023-07-22T11:49:12;29.60;79.60
56771;DHT22;42641;59.794;17.616;2023-07-22T11:51:42;30.10;77.60
56771;DHT22;42641;59.794;17.616;2023-07-22T11:54:09;29.50;75.30
56771;DHT22;42641;59.794;17.616;2023-07-22T11:56:39;29.20;78.10
56771;DHT22;42641;59.794;17.616;2023-07-22T11:59:06;29.10;77.70
56771;DHT22;42641;59.794;17.616;2023-07-22T12:01:34;29.00;77.40
56771;DHT22;42641;59.794;17.616;2023-07-22T12:04:01;29.40;77.30
56771;DHT22;42641;59.794;17.616;2023-07-22T12:06:27;30.40;75.90
56771;DHT22;42641;59.794;17.616;2023-07-22T12:08:54;30.80;73.00
56771;DHT22;42641;59.794;17.616;2023-07-22T12:11:22;30.60;74.70
56771;DHT22;42641;59.794;17.616;2023-07-22T12:14:04;30.00;74.80
56771;DHT22;42641;59.794;17.616;2023-07-22T12:16:31;28.80;73.60
56771;DHT22;42641;59.794;17.616;2023-07-22T12:18:57;27.80;75.50
56771;DHT22;42641;59.794;17.616;2023-07-22T12:21:24;27.10;77.30
56771;DHT22;42641;59.794;17.616;2023-07-22T12:23:52;26.70;79.30
56771;DHT22;42641;59.794;17.616;2023-07-22T12:26:19;26.40;80.20
56771;DHT22;42641;59.794;17.616;2023-07-22T12:28:45;26.70;81.30
56771;DHT22;42641;59.794;17.616;2023-07-22T12:31:12;27.10;80.40
56771;DHT22;42641;59.794;17.616;2023-07-22T12:33:38;27.70;81.00
56771;DHT22;42641;59.794;17.616;2023-07-22T12:36:05;28.20;80.50
56771;DHT22;42641;59.794;17.616;2023-07-22T12:38:32;27.80;78.20
56771;DHT22;42641;59.794;17.616;2023-07-22T12:40:58;27.40;78.70
56771;DHT22;42641;59.794;17.616;2023-07-22T12:43:24;27.30;78.40
56771;DHT22;42641;59.794;17.616;2023-07-22T12:45:51;26.50;79.60
56771;DHT22;42641;59.794;17.616;2023-07-22T12:48:17;25.90;80.00
56771;DHT22;42641;59.794;17.616;2023-07-22T12:50:44;25.90;82.70
56771;DHT22;42641;59.794;17.616;2023-07-22T12:53:11;25.70;81.70
56771;DHT22;42641;59.794;17.616;2023-07-22T12:55:37;25.30;82.80
56771;DHT22;42641;59.794;17.616;2023-07-22T12:58:04;24.90;83.70
56771;DHT22;42641;59.794;17.616;2023-07-22T13:00:30;25.10;83.80
56771;DHT22;42641;59.794;17.616;2023-07-22T13:02:57;25.30;83.60
56771;DHT22;42641;59.794;17.616;2023-07-22T13:05:24;25.70;83.10
56771;DHT22;42641;59.794;17.616;2023-07-22T13:07:51;26.90;80.80
56771;DHT22;42641;59.794;17.616;2023-07-22T13:10:22;27.80;77.90
56771;DHT22;42641;59.794;17.616;2023-07-22T13:12:49;28.30;74.50
56771;DHT22;42641;59.794;17.616;2023-07-22T13:15:16;29.00;73.80
56771;DHT22;42641;59.794;17.616;2023-07-22T13:17:42;29.50;76.20
56771;DHT22;42641;59.794;17.616;2023-07-22T13:20:09;30.10;70.30
56771;DHT22;42641;59.794;17.616;2023-07-22T13:22:38;30.30;68.60
56771;DHT22;42641;59.794;17.616;2023-07-22T13:25:06;30.20;68.80
56771;DHT22;42641;59.794;17.616;2023-07-22T13:27:32;30.40;69.70
56771;DHT22;42641;59.794;17.616;2023-07-22T13:29:59;30.40;68.40
56771;DHT22;42641;59.794;17.616;2023-07-22T13:32:27;30.30;67.20
56771;DHT22;42641;59.794;17.616;2023-07-22T13:34:53;30.50;67.70
56771;DHT22;42641;59.794;17.616;2023-07-22T13:37:19;31.10;67.10
56771;DHT22;42641;59.794;17.616;2023-07-22T13:39:46;31.60;67.10
56771;DHT22;42641;59.794;17.616;2023-07-22T13:42:12;32.00;63.50
56771;DHT22;42641;59.794;17.616;2023-07-22T13:44:39;31.70;65.80
56771;DHT22;42641;59.794;17.616;2023-07-22T13:47:05;31.90;65.50
56771;DHT22;42641;59.794;17.616;2023-07-22T13:49:32;31.80;63.20
56771;DHT22;42641;59.794;17.616;2023-07-22T13:51:58;31.40;63.50
56771;DHT22;42641;59.794;17.616;2023-07-22T13:54:25;31.50;65.70
56771;DHT22;42641;59.794;17.616;2023-07-22T13:59:47;32.30;61.00
56771;DHT22;42641;59.794;17.616;2023-07-22T14:02:14;32.60;59.80
56771;DHT22;42641;59.794;17.616;2023-07-22T14:04:41;32.80;61.50
56771;DHT22;42641;59.794;17.616;2023-07-22T14:07:07;33.00;58.50
56771;DHT22;42641;59.794;17.616;2023-07-22T14:09:33;33.30;58.20
56771;DHT22;42641;59.794;17.616;2023-07-22T14:12:00;33.10;57.50
56771;DHT22;42641;59.794;17.616;2023-07-22T14:14:26;32.70;58.20
56771;DHT22;42641;59.794;17.616;2023-07-22T14:16:55;32.40;58.40
56771;DHT22;42641;59.794;17.616;2023-07-22T14:19:23;32.40;60.80
56771;DHT22;42641;59.794;17.616;2023-07-22T14:21:50;32.10;58.20
56771;DHT22;42641;59.794;17.616;2023-07-22T14:24:16;31.20;60.30
56771;DHT22;42641;59.794;17.616;2023-07-22T14:26:44;31.10;61.80
56771;DHT22;42641;59.794;17.616;2023-07-22T14:29:10;31.50;60.50
56771;DHT22;42641;59.794;17.616;2023-07-22T14:31:36;31.70;60.50
56771;DHT22;42641;59.794;17.616;2023-07-22T14:34:03;31.60;60.00
56771;DHT22;42641;59.794;17.616;2023-07-22T14:36:29;31.60;60.20
56771;DHT22;42641;59.794;17.616;2023-07-22T14:38:56;32.20;58.50
56771;DHT22;42641;59.794;17.616;2023-07-22T14:41:23;32.10;57.20
56771;DHT22;42641;59.794;17.616;2023-07-22T14:43:50;32.30;58.30
56771;DHT22;42641;59.794;17.616;2023-07-22T14:46:16;31.70;58.60
56771;DHT22;42641;59.794;17.616;2023-07-22T14:48:43;31.10;61.30
56771;DHT22;42641;59.794;17.616;2023-07-22T14:51:11;31.30;60.40
56771;DHT22;42641;59.794;17.616;2023-07-22T14:53:37;31.60;59.40
56771;DHT22;42641;59.794;17.616;2023-07-22T14:56:04;31.90;57.30
56771;DHT22;42641;59.794;17.616;2023-07-22T14:58:32;32.00;57.70
56771;DHT22;42641;59.794;17.616;2023-07-22T15:03:57;31.00;60.30
56771;DHT22;42641;59.794;17.616;2023-07-22T15:06:23;31.20;58.20
56771;DHT22;42641;59.794;17.616;2023-07-22T15:11:47;31.40;59.80
56771;DHT22;42641;59.794;17.616;2023-07-22T15:14:14;30.50;60.70
56771;DHT22;42641;59.794;17.616;2023-07-22T15:16:40;29.30;61.10
56771;DHT22;42641;59.794;17.616;2023-07-22T15:19:07;28.70;63.00
56771;DHT22;42641;59.794;17.616;2023-07-22T15:21:34;28.90;64.60
56771;DHT22;42641;59.794;17.616;2023-07-22T15:24:00;29.10;67.10
56771;DHT22;42641;59.794;17.616;2023-07-22T15:26:27;29.50;66.70
56771;DHT22;42641;59.794;17.616;2023-07-22T15:28:53;30.10;67.40
56771;DHT22;42641;59.794;17.616;2023-07-22T15:31:20;30.20;67.20
56771;DHT22;42641;59.794;17.616;2023-07-22T15:33:49;30.10;68.10